createdAt,value
2022-12-19T00:00:35.797Z,93.86
2022-12-19T00:01:35.742Z,93.23
2022-12-19T00:02:35.814Z,93.70
2022-12-19T00:03:35.735Z,93.27
2022-12-19T00:04:35.648Z,93.48
2022-12-19T00:05:35.611Z,94.11
2022-12-19T00:06:35.591Z,94.42
2022-12-19T00:07:35.584Z,94.64
2022-12-19T00:08:35.568Z,94.21
2022-12-19T00:09:35.564Z,94.38
2022-12-19T00:10:35.562Z,94.53
2022-12-19T00:11:35.540Z,94.17
2022-12-19T00:12:35.529Z,94.32
2022-12-19T00:13:40.187Z,94.07
2022-12-19T00:14:36.519Z,94.38
2022-12-19T00:15:35.497Z,94.38
2022-12-19T00:16:35.668Z,94.01
2022-12-19T00:17:35.486Z,93.96
2022-12-19T00:18:35.672Z,94.38
2022-12-19T00:19:35.484Z,94.38
2022-12-19T00:20:35.449Z,93.96
2022-12-19T00:21:36.426Z,93.65
2022-12-19T00:22:35.446Z,93.33
2022-12-19T00:23:35.416Z,94.49
2022-12-19T00:24:35.401Z,93.96
2022-12-19T00:25:35.402Z,94.49
2022-12-19T00:26:35.371Z,94.70
2022-12-19T00:27:35.360Z,94.38
2022-12-19T00:28:35.358Z,94.17
2022-12-19T00:29:35.365Z,94.70
2022-12-19T00:30:35.337Z,95.64
2022-12-19T00:31:35.368Z,95.43
2022-12-19T00:32:35.438Z,95.53
2022-12-19T00:33:35.308Z,95.84
2022-12-19T00:34:35.312Z,95.84
2022-12-19T00:35:35.283Z,95.53
2022-12-19T00:36:35.258Z,95.64
2022-12-19T00:37:35.259Z,95.74
2022-12-19T00:38:35.237Z,95.84
2022-12-19T00:39:35.238Z,95.70
2022-12-19T00:40:35.242Z,96.58
2022-12-19T00:41:35.216Z,96.16
2022-12-19T00:42:35.202Z,96.43
2022-12-19T00:43:35.194Z,96.16
2022-12-19T00:44:35.190Z,96.47
2022-12-19T00:45:35.198Z,96.58
2022-12-19T00:46:35.168Z,96.22
2022-12-19T00:47:35.149Z,96.78
2022-12-19T00:48:35.255Z,96.78
2022-12-19T00:49:35.143Z,96.47
2022-12-19T00:50:35.100Z,96.68
2022-12-19T00:51:35.092Z,96.68
2022-12-19T00:52:35.074Z,96.58
2022-12-19T00:53:35.074Z,96.64
2022-12-19T00:54:35.136Z,96.53
2022-12-19T00:55:35.083Z,96.43
2022-12-19T00:56:37.776Z,96.74
2022-12-19T00:57:35.036Z,96.53
2022-12-19T00:58:35.713Z,96.43
2022-12-19T00:59:36.016Z,96.33
2022-12-19T01:00:35.086Z,96.33
2022-12-19T01:01:35.227Z,96.33
2022-12-19T01:02:35.085Z,96.01
2022-12-19T01:03:34.969Z,96.53
2022-12-19T01:04:39.860Z,96.43
2022-12-19T01:05:35.932Z,96.33
2022-12-19T01:06:34.919Z,96.53
2022-12-19T01:07:42.950Z,96.07
2022-12-19T01:08:34.896Z,96.38
2022-12-19T01:09:34.907Z,95.97
2022-12-19T01:10:34.907Z,96.43
2022-12-19T01:11:34.882Z,96.17
2022-12-19T01:12:34.851Z,96.33
2022-12-19T01:13:34.843Z,95.86
2022-12-19T01:14:34.858Z,95.70
2022-12-19T01:15:34.835Z,96.38
2022-12-19T01:16:34.906Z,96.07
2022-12-19T01:17:35.546Z,95.97
2022-12-19T01:18:35.796Z,95.65
2022-12-19T01:19:38.985Z,95.97
2022-12-19T01:20:35.895Z,96.13
2022-12-19T01:21:34.754Z,96.28
2022-12-19T01:22:34.753Z,96.28
2022-12-19T01:23:34.754Z,95.86
2022-12-19T01:24:34.737Z,95.86
2022-12-19T01:25:35.722Z,96.38
2022-12-19T01:26:34.712Z,96.49
2022-12-19T01:27:34.708Z,96.59
2022-12-19T01:28:34.676Z,96.80
2022-12-19T01:29:36.732Z,97.64
2022-12-19T01:30:35.660Z,97.74
2022-12-19T01:31:34.704Z,97.32
2022-12-19T01:32:34.644Z,97.38
2022-12-19T01:33:34.633Z,97.32
2022-12-19T01:34:34.625Z,97.59
2022-12-19T01:35:34.598Z,97.43
2022-12-19T01:36:34.712Z,97.53
2022-12-19T01:37:35.587Z,97.59
2022-12-19T01:38:34.577Z,97.49
2022-12-19T01:39:34.551Z,97.17
2022-12-19T01:40:34.568Z,97.07
2022-12-19T01:41:34.560Z,97.70
2022-12-19T01:42:34.514Z,97.59
2022-12-19T01:43:34.505Z,96.76
2022-12-19T01:44:34.523Z,96.86
2022-12-19T01:45:37.443Z,97.03
2022-12-19T01:46:34.557Z,96.44
2022-12-19T01:47:34.486Z,96.55
2022-12-19T01:48:34.460Z,96.44
2022-12-19T01:49:34.466Z,96.03
2022-12-19T01:50:34.437Z,96.44
2022-12-19T01:51:34.442Z,96.03
2022-12-19T01:52:34.526Z,96.34
2022-12-19T01:53:34.409Z,96.61
2022-12-19T01:54:34.413Z,96.76
2022-12-19T01:55:34.387Z,96.50
2022-12-19T01:56:34.467Z,96.34
2022-12-19T01:57:34.327Z,96.23
2022-12-19T01:58:34.319Z,95.98
2022-12-19T01:59:34.324Z,96.13
2022-12-19T02:00:34.295Z,96.40
2022-12-19T02:01:34.575Z,95.92
2022-12-19T02:02:35.390Z,96.09
2022-12-19T02:03:34.276Z,95.88
2022-12-19T02:04:34.255Z,96.50
2022-12-19T02:05:34.233Z,96.40
2022-12-19T02:06:34.227Z,96.40
2022-12-19T02:07:34.211Z,95.88
2022-12-19T02:08:35.327Z,95.67
2022-12-19T02:09:34.800Z,95.67
2022-12-19T02:10:34.186Z,95.56
2022-12-19T02:11:34.176Z,95.56
2022-12-19T02:12:34.180Z,95.73
2022-12-19T02:13:34.171Z,95.67
2022-12-19T02:14:34.144Z,95.56
2022-12-19T02:15:34.134Z,95.98
2022-12-19T02:16:34.144Z,95.56
2022-12-19T02:17:34.102Z,95.98
2022-12-19T02:18:34.097Z,95.56
2022-12-19T02:19:34.092Z,95.56
2022-12-19T02:20:34.074Z,95.04
2022-12-19T02:21:34.088Z,95.00
2022-12-19T02:22:34.040Z,95.67
2022-12-19T02:23:34.039Z,94.90
2022-12-19T02:24:34.143Z,95.31
2022-12-19T02:25:34.025Z,94.79
2022-12-19T02:26:33.995Z,94.63
2022-12-19T02:27:39.758Z,95.04
2022-12-19T02:28:35.024Z,94.84
2022-12-19T02:29:33.988Z,94.84
2022-12-19T02:30:33.953Z,94.37
2022-12-19T02:31:35.000Z,94.37
2022-12-19T02:32:35.385Z,94.58
2022-12-19T02:33:33.938Z,94.52
2022-12-19T02:34:33.920Z,94.37
2022-12-19T02:35:33.916Z,94.79
2022-12-19T02:36:38.674Z,94.31
2022-12-19T02:37:34.897Z,94.58
2022-12-19T02:38:33.884Z,94.58
2022-12-19T02:39:33.915Z,94.69
2022-12-19T02:40:33.967Z,94.17
2022-12-19T02:41:33.937Z,94.48
2022-12-19T02:42:33.850Z,94.37
2022-12-19T02:43:33.826Z,94.58
2022-12-19T02:44:34.817Z,93.75
2022-12-19T02:45:33.797Z,93.85
2022-12-19T08:46:27.372Z,99.99
2022-12-19T08:47:27.278Z,99.98
2022-12-19T08:48:27.260Z,99.99
2022-12-19T08:49:27.260Z,99.99
2022-12-19T08:50:27.221Z,99.98
2022-12-19T08:51:27.216Z,99.99
2022-12-19T08:52:27.200Z,99.99
2022-12-19T08:53:27.207Z,99.99
2022-12-19T08:54:27.252Z,99.99
2022-12-19T08:55:27.298Z,99.99
2022-12-19T08:56:27.155Z,99.99
2022-12-19T08:57:27.148Z,99.99
2022-12-19T08:58:27.129Z,99.99
2022-12-19T08:59:30.492Z,99.99
2022-12-19T09:00:27.118Z,99.99
2022-12-19T09:01:27.138Z,99.99
2022-12-19T09:02:27.309Z,99.99
2022-12-19T09:03:27.377Z,99.99
2022-12-19T09:05:58.839Z,99.99
2022-12-19T09:06:04.434Z,99.99
2022-12-19T09:06:28.076Z,99.99
2022-12-19T09:07:27.050Z,99.99
2022-12-19T09:08:27.028Z,99.99
2022-12-19T09:09:27.072Z,99.99
2022-12-19T09:10:26.998Z,99.99
2022-12-19T09:11:27.009Z,99.99
2022-12-19T09:12:26.981Z,99.99
2022-12-19T09:13:26.984Z,99.99
2022-12-19T09:14:26.949Z,99.99
2022-12-19T09:15:26.983Z,99.99
2022-12-19T09:16:27.050Z,99.99
2022-12-19T09:17:26.919Z,99.99
2022-12-19T09:18:27.022Z,99.99
2022-12-19T09:19:26.918Z,99.99
2022-12-19T09:20:26.972Z,99.99
2022-12-19T09:21:26.896Z,99.99
2022-12-19T09:22:29.229Z,99.99
2022-12-19T09:23:26.865Z,99.99
2022-12-19T09:24:26.850Z,99.99
2022-12-19T09:25:26.855Z,99.99
2022-12-19T09:26:27.348Z,99.99
2022-12-19T09:27:27.815Z,99.99
2022-12-19T09:28:28.107Z,99.99
2022-12-19T09:29:29.697Z,99.99
2022-12-19T09:30:27.790Z,99.99
2022-12-19T09:31:26.870Z,99.99
2022-12-19T09:32:26.765Z,99.99
2022-12-19T09:33:26.741Z,99.99
2022-12-19T09:34:33.123Z,99.99
2022-12-19T09:35:30.428Z,99.99
2022-12-19T09:36:26.721Z,99.99
2022-12-19T09:37:26.695Z,99.99
2022-12-19T09:38:26.681Z,99.99
2022-12-19T09:39:26.707Z,99.99
2022-12-19T09:40:26.705Z,99.99
2022-12-19T09:41:26.675Z,99.99
2022-12-19T09:42:26.653Z,99.99
2022-12-19T09:43:26.639Z,99.99
2022-12-19T09:44:26.643Z,99.99
2022-12-19T09:45:31.360Z,99.99
2022-12-19T09:46:27.618Z,99.99
2022-12-19T09:47:26.602Z,99.99
2022-12-19T09:48:26.576Z,99.99
2022-12-19T09:49:26.577Z,99.99
2022-12-19T09:50:26.687Z,99.99
2022-12-19T09:51:26.558Z,99.99
2022-12-19T09:52:26.939Z,99.99
2022-12-19T09:53:26.534Z,99.99
2022-12-19T09:54:26.529Z,99.99
2022-12-19T09:55:26.512Z,99.99
2022-12-19T09:56:26.483Z,99.99
2022-12-19T09:57:26.476Z,99.99
2022-12-19T09:58:26.459Z,99.99
2022-12-19T09:59:33.194Z,99.99
2022-12-19T10:00:27.433Z,99.99
2022-12-19T10:01:26.632Z,99.99
2022-12-19T10:02:26.643Z,99.99
2022-12-19T10:03:26.474Z,99.99
2022-12-19T10:04:26.393Z,99.99
2022-12-19T10:05:39.213Z,99.99
2022-12-19T10:07:21.260Z,99.99
2022-12-19T10:08:01.468Z,99.99
2022-12-19T10:08:27.348Z,99.99
2022-12-19T10:11:55.507Z,99.99
2022-12-19T10:12:39.748Z,99.99
2022-12-19T10:12:39.944Z,99.99
2022-12-19T10:12:45.620Z,99.99
2022-12-19T10:13:27.305Z,99.99
2022-12-19T10:14:26.296Z,99.99
2022-12-19T10:15:26.284Z,99.99
2022-12-19T10:16:26.263Z,99.99
2022-12-19T10:17:26.255Z,99.99
2022-12-19T10:18:26.446Z,99.99
2022-12-19T10:19:26.249Z,99.99
2022-12-19T10:20:26.224Z,99.99
2022-12-19T10:21:50.782Z,99.99
2022-12-19T10:22:27.306Z,99.99
2022-12-19T10:23:26.193Z,99.99
2022-12-19T10:24:30.150Z,99.99
2022-12-19T10:25:27.192Z,99.99
2022-12-19T10:26:30.308Z,99.99
2022-12-19T10:27:26.150Z,99.99
2022-12-19T10:28:26.125Z,99.99
2022-12-19T10:29:26.150Z,99.99
2022-12-19T10:30:26.116Z,99.99
2022-12-19T10:31:26.154Z,99.99
2022-12-19T10:32:26.111Z,99.99
2022-12-19T10:33:31.873Z,99.99
2022-12-19T10:34:26.088Z,99.99
2022-12-19T10:35:26.064Z,99.99
2022-12-19T10:36:48.831Z,99.99
2022-12-19T10:37:35.220Z,99.99
2022-12-19T10:38:27.167Z,99.99
2022-12-19T10:39:25.998Z,99.99
2022-12-19T10:40:28.617Z,99.99
2022-12-19T10:41:25.971Z,99.99
2022-12-19T10:42:25.977Z,99.99
2022-12-19T10:43:33.590Z,99.99
2022-12-19T10:44:26.999Z,99.88
2022-12-19T10:45:25.941Z,99.88
2022-12-19T10:46:25.944Z,99.99
2022-12-19T10:47:25.910Z,99.88
2022-12-19T10:48:30.520Z,99.94
2022-12-19T10:49:26.957Z,99.78
2022-12-19T10:50:25.882Z,99.99
2022-12-19T10:51:25.864Z,99.99
2022-12-19T10:52:25.846Z,99.94
2022-12-19T10:53:25.879Z,99.99
2022-12-19T10:54:33.373Z,99.57
2022-12-19T10:55:26.841Z,99.63
2022-12-19T10:56:28.265Z,99.43
2022-12-19T10:57:26.799Z,99.43
2022-12-19T10:58:25.788Z,99.32
2022-12-19T10:59:25.812Z,98.91
2022-12-19T11:00:25.823Z,98.86
2022-12-19T11:01:26.162Z,99.43
2022-12-19T11:02:25.897Z,99.27
2022-12-19T11:03:25.941Z,98.75
2022-12-19T11:04:25.842Z,98.80
2022-12-19T11:05:25.794Z,98.70
2022-12-19T11:06:25.693Z,98.96
2022-12-19T11:07:25.686Z,98.96
2022-12-19T11:08:25.737Z,98.80
2022-12-19T11:09:25.697Z,98.44
2022-12-19T11:11:38.030Z,98.96
2022-12-19T11:14:41.504Z,98.44
2022-12-19T11:16:17.185Z,97.93
2022-12-19T11:17:24.222Z,98.03
2022-12-19T11:19:13.527Z,97.83
2022-12-19T11:20:39.536Z,97.93
2022-12-19T11:20:41.042Z,97.83
2022-12-19T11:21:07.586Z,98.24
2022-12-19T11:23:42.526Z,97.83
2022-12-19T11:29:17.413Z,97.83
2022-12-19T11:29:25.068Z,97.83
2022-12-19T11:29:33.567Z,97.62
2022-12-19T11:29:37.272Z,97.41
2022-12-19T11:29:39.178Z,97.72
2022-12-19T11:29:44.577Z,97.62
2022-12-19T11:30:38.642Z,97.52
2022-12-19T11:30:39.348Z,97.83
2022-12-19T11:30:43.541Z,97.83
2022-12-19T11:30:43.545Z,97.88
2022-12-19T11:31:51.001Z,97.97
2022-12-19T11:33:26.427Z,97.00
2022-12-19T11:34:25.391Z,97.10
2022-12-19T11:35:36.923Z,97.31
2022-12-19T11:36:26.366Z,97.31
2022-12-19T11:37:25.335Z,97.31
2022-12-19T11:38:26.352Z,97.47
2022-12-19T11:39:25.339Z,97.10
2022-12-19T11:40:25.344Z,97.16
2022-12-19T11:41:25.302Z,97.41
2022-12-19T11:42:26.229Z,97.31
2022-12-19T11:43:43.855Z,97.36
2022-12-19T11:44:26.287Z,97.31
2022-12-19T11:45:25.251Z,97.16
2022-12-19T11:46:25.240Z,97.41
2022-12-19T11:47:25.220Z,96.95
2022-12-19T11:48:25.218Z,96.85
2022-12-19T11:49:25.316Z,97.20
2022-12-19T11:50:25.228Z,97.47
2022-12-19T11:51:25.188Z,96.64
2022-12-19T11:53:26.168Z,96.23
2022-12-19T11:54:25.181Z,96.33
2022-12-19T11:55:25.139Z,96.12
2022-12-19T11:56:25.155Z,96.33
2022-12-19T11:57:25.124Z,96.33
2022-12-19T11:58:25.251Z,96.54
2022-12-19T11:59:25.103Z,96.44
2022-12-19T12:00:25.079Z,96.44
2022-12-19T12:01:25.142Z,96.64
2022-12-19T12:02:25.096Z,96.54
2022-12-19T12:03:25.096Z,96.33
2022-12-19T12:04:25.100Z,96.44
2022-12-19T12:05:25.042Z,96.64
2022-12-19T12:06:31.103Z,96.85
2022-12-19T12:07:38.023Z,96.29
2022-12-19T12:08:54.276Z,96.44
2022-12-19T12:13:40.241Z,97.06
2022-12-19T12:14:29.153Z,96.80
2022-12-19T12:19:07.683Z,96.59
2022-12-19T12:20:06.939Z,96.23
2022-12-19T12:22:12.004Z,96.59
2022-12-19T12:22:17.609Z,96.75
2022-12-19T12:22:57.579Z,96.70
2022-12-19T12:30:59.405Z,96.39
2022-12-19T12:30:59.450Z,96.59
2022-12-19T12:31:08.903Z,96.80
2022-12-19T12:31:09.557Z,96.59
2022-12-19T12:31:12.797Z,96.70
2022-12-19T12:31:15.524Z,96.19
2022-12-19T12:31:16.332Z,96.59
2022-12-19T12:31:22.908Z,95.98
2022-12-19T12:31:39.145Z,95.87
2022-12-19T12:31:40.800Z,96.70
2022-12-19T12:31:41.204Z,96.80
2022-12-19T12:31:52.924Z,96.29
2022-12-19T12:31:56.860Z,96.29
2022-12-19T12:32:03.750Z,95.62
2022-12-19T12:32:03.986Z,96.70
2022-12-19T12:35:33.274Z,95.67
2022-12-19T12:35:36.470Z,95.73
2022-12-19T12:35:50.923Z,96.14
2022-12-19T12:35:54.428Z,95.94
2022-12-19T12:38:27.866Z,95.83
2022-12-19T12:39:29.798Z,95.21
2022-12-19T12:40:25.626Z,95.62
2022-12-19T12:41:24.622Z,95.42
2022-12-19T12:42:24.614Z,94.65
2022-12-19T12:43:24.582Z,94.44
2022-12-19T12:44:33.078Z,94.79
2022-12-19T12:45:25.583Z,94.34
2022-12-19T12:46:32.017Z,94.34
2022-12-19T12:47:24.585Z,94.54
2022-12-19T12:48:24.544Z,94.38
2022-12-19T12:49:24.547Z,94.44
2022-12-19T12:50:24.524Z,94.18
2022-12-19T12:51:24.520Z,93.82
2022-12-19T12:52:24.502Z,94.23
2022-12-19T12:53:24.473Z,94.13
2022-12-19T12:54:24.517Z,94.28
2022-12-19T12:55:25.460Z,94.75
2022-12-19T12:56:24.464Z,94.34
2022-12-19T12:57:24.442Z,94.54
2022-12-19T12:58:24.421Z,94.69
2022-12-19T12:59:24.416Z,94.23
2022-12-19T13:00:26.573Z,94.48
2022-12-19T13:01:24.493Z,94.69
2022-12-19T13:02:24.773Z,94.34
2022-12-19T13:03:25.372Z,94.65
2022-12-19T13:04:24.375Z,94.29
2022-12-19T13:05:24.340Z,94.40
2022-12-19T13:06:24.342Z,94.34
2022-12-19T13:07:24.317Z,94.44
2022-12-19T13:08:24.317Z,94.19
2022-12-19T13:09:24.318Z,94.60
2022-12-19T13:10:24.288Z,94.34
2022-12-19T13:11:24.282Z,94.03
2022-12-19T13:12:24.279Z,94.54
2022-12-19T13:13:25.984Z,94.81
2022-12-19T13:14:24.259Z,94.29
2022-12-19T13:15:24.224Z,94.54
2022-12-19T13:16:24.288Z,93.98
2022-12-19T13:17:24.221Z,93.37
2022-12-19T13:18:25.221Z,93.43
2022-12-19T13:19:28.405Z,93.43
2022-12-19T13:20:24.200Z,93.63
2022-12-19T13:21:25.158Z,93.37
2022-12-19T13:22:24.166Z,93.12
2022-12-19T13:23:24.147Z,93.16
2022-12-19T13:24:24.177Z,93.32
2022-12-19T13:25:24.706Z,93.01
2022-12-19T13:26:25.115Z,92.80
2022-12-19T13:27:24.107Z,93.01
2022-12-19T13:28:25.094Z,93.32
2022-12-19T13:29:24.079Z,92.44
2022-12-19T13:31:08.165Z,92.70
2022-12-19T13:31:25.157Z,92.50
2022-12-19T13:32:24.068Z,92.50
2022-12-19T13:33:24.037Z,92.08
2022-12-19T13:34:24.059Z,92.50
2022-12-19T13:37:31.367Z,92.29
2022-12-19T13:39:49.446Z,92.19
2022-12-19T13:39:51.156Z,92.55
2022-12-19T13:39:52.264Z,91.67
2022-12-19T13:40:00.875Z,91.77
2022-12-19T13:40:30.597Z,92.29
2022-12-19T13:41:24.968Z,91.98
2022-12-19T13:42:23.933Z,91.56
2022-12-19T13:43:23.924Z,91.36
2022-12-19T13:44:23.900Z,91.56
2022-12-19T13:45:23.921Z,91.88
2022-12-19T13:46:23.953Z,91.16
2022-12-19T13:47:24.208Z,91.26
2022-12-19T13:48:23.853Z,91.30
2022-12-19T13:49:23.857Z,91.61
2022-12-19T13:50:23.856Z,92.50
2022-12-19T13:51:23.816Z,91.61
2022-12-19T13:52:23.822Z,91.40
2022-12-19T13:53:23.812Z,91.88
2022-12-19T13:54:23.813Z,92.74
2022-12-19T13:55:24.767Z,91.61
2022-12-19T13:56:23.759Z,91.61
2022-12-19T13:57:23.745Z,92.68
2022-12-19T13:58:28.898Z,92.33
2022-12-19T13:59:24.776Z,92.33
2022-12-19T14:00:23.716Z,92.13
2022-12-19T14:01:23.890Z,92.13
2022-12-19T14:02:23.939Z,92.54
2022-12-19T14:03:24.005Z,92.13
2022-12-19T14:04:23.668Z,92.44
2022-12-19T14:05:33.921Z,92.23
2022-12-19T14:06:24.688Z,92.44
2022-12-19T14:07:34.715Z,92.48
2022-12-19T14:08:24.638Z,91.92
2022-12-19T14:11:27.123Z,92.58
2022-12-19T14:11:32.985Z,92.13
2022-12-19T14:11:47.146Z,92.58
2022-12-19T14:13:41.976Z,92.33
2022-12-19T14:13:43.628Z,92.33
2022-12-19T14:14:28.174Z,92.48
2022-12-19T14:15:23.540Z,92.48
2022-12-19T14:16:39.894Z,92.38
2022-12-19T14:17:24.549Z,92.48
2022-12-19T14:18:44.269Z,92.44
2022-12-19T14:19:24.519Z,92.54
2022-12-19T14:22:01.798Z,93.16
2022-12-19T14:22:04.748Z,92.33
2022-12-19T14:22:26.395Z,92.23
2022-12-19T14:23:36.919Z,92.38
2022-12-19T14:24:24.440Z,92.02
2022-12-19T14:28:15.474Z,92.33
2022-12-19T14:28:21.477Z,92.33
2022-12-19T14:28:28.253Z,92.44
2022-12-19T14:28:30.126Z,92.33
2022-12-19T14:30:28.625Z,91.96
2022-12-19T14:30:30.881Z,92.13
2022-12-19T14:31:24.503Z,92.58
2022-12-19T14:33:39.794Z,92.54
2022-12-19T14:33:45.423Z,92.44
2022-12-19T14:36:11.293Z,93.26
2022-12-19T14:36:26.662Z,93.10
2022-12-19T14:37:37.148Z,92.95
2022-12-19T14:39:23.614Z,93.05
2022-12-19T14:39:29.378Z,93.10
2022-12-19T14:40:24.273Z,93.26
2022-12-19T14:41:23.286Z,93.05
2022-12-19T14:42:48.246Z,93.26
2022-12-19T14:43:59.202Z,92.99
2022-12-19T14:51:42.424Z,93.26
2022-12-19T14:53:51.072Z,93.05
2022-12-19T14:54:01.312Z,92.89
2022-12-19T14:54:13.811Z,93.05
2022-12-19T14:54:15.171Z,93.37
2022-12-19T14:54:15.600Z,93.41
2022-12-19T14:54:25.742Z,93.26
2022-12-19T14:54:30.698Z,92.64
2022-12-19T14:54:31.518Z,93.16
2022-12-19T14:54:52.713Z,93.37
2022-12-19T14:56:13.130Z,93.37
2022-12-19T14:57:25.502Z,93.82
2022-12-19T14:58:53.613Z,92.95
2022-12-19T14:59:24.082Z,93.26
2022-12-19T15:01:07.489Z,92.74
2022-12-19T15:01:24.625Z,93.47
2022-12-19T15:02:27.939Z,93.05
2022-12-19T15:03:24.218Z,93.16
2022-12-19T15:04:53.133Z,92.85
2022-12-19T15:05:24.033Z,93.26
2022-12-19T15:07:05.851Z,92.85
2022-12-19T15:07:23.957Z,92.85
2022-12-19T15:08:44.500Z,93.16
2022-12-19T15:11:05.356Z,92.95
2022-12-19T15:11:08.239Z,93.26
2022-12-19T15:11:44.536Z,93.26
2022-12-19T15:12:39.711Z,93.26
2022-12-19T15:14:48.708Z,92.74
2022-12-19T15:14:53.084Z,93.12
2022-12-19T15:15:23.880Z,92.80
2022-12-19T15:16:23.128Z,92.60
2022-12-19T15:17:22.852Z,92.19
2022-12-19T15:18:22.849Z,92.29
2022-12-19T15:19:22.815Z,91.98
2022-12-19T15:20:22.844Z,92.40
2022-12-19T15:21:22.821Z,92.50
2022-12-19T15:22:22.789Z,91.94
2022-12-19T15:23:23.030Z,91.98
2022-12-19T15:24:22.790Z,92.08
2022-12-19T15:26:01.407Z,92.04
2022-12-19T15:26:23.783Z,92.08
2022-12-19T15:27:22.741Z,92.25
2022-12-19T15:28:22.747Z,92.04
2022-12-19T15:29:22.744Z,92.08
2022-12-19T15:30:22.716Z,92.14
2022-12-19T15:31:22.704Z,91.83
2022-12-19T15:32:22.686Z,92.14
2022-12-19T15:33:22.712Z,92.35
2022-12-19T15:34:46.373Z,92.35
2022-12-19T15:35:23.648Z,92.25
2022-12-19T15:36:22.621Z,92.14
2022-12-19T15:37:22.624Z,92.55
2022-12-19T15:38:22.616Z,91.58
2022-12-19T15:39:22.617Z,91.58
2022-12-19T15:40:23.421Z,91.52
2022-12-19T15:41:22.585Z,91.07
2022-12-19T15:42:22.607Z,91.58
2022-12-19T15:44:01.333Z,91.52
2022-12-19T15:44:23.561Z,90.97
2022-12-19T15:45:22.548Z,91.17
2022-12-19T15:46:22.566Z,91.11
2022-12-19T15:47:22.617Z,90.97
2022-12-19T15:48:22.512Z,90.86
2022-12-19T15:49:22.493Z,90.55
2022-12-19T15:50:22.474Z,90.86
2022-12-19T15:51:22.471Z,90.76
2022-12-19T15:52:22.443Z,90.55
2022-12-19T15:53:34.602Z,90.66
2022-12-19T15:54:48.855Z,90.86
2022-12-19T15:55:23.409Z,91.69
2022-12-19T15:56:22.400Z,91.28
2022-12-19T15:57:22.395Z,91.89
2022-12-19T15:58:22.420Z,91.79
2022-12-19T15:59:22.379Z,91.07
2022-12-19T16:00:22.367Z,91.07
2022-12-19T16:01:22.496Z,91.07
2022-12-19T16:02:22.494Z,91.38
2022-12-19T16:03:24.622Z,91.07
2022-12-19T16:04:22.647Z,91.28
2022-12-19T16:05:22.364Z,91.69
2022-12-19T16:06:22.303Z,91.73
2022-12-19T16:07:23.294Z,91.32
2022-12-19T16:08:22.282Z,92.21
2022-12-19T16:09:22.294Z,91.42
2022-12-19T16:10:22.238Z,92.25
2022-12-19T16:11:22.238Z,92.35
2022-12-19T16:12:22.225Z,92.35
2022-12-19T16:13:22.247Z,92.14
2022-12-19T16:14:22.242Z,91.69
2022-12-19T16:15:22.201Z,92.25
2022-12-19T16:16:22.223Z,92.04
2022-12-19T16:17:22.166Z,92.21
2022-12-19T16:18:22.160Z,91.89
2022-12-19T16:19:22.164Z,92.04
2022-12-19T16:20:22.137Z,91.94
2022-12-19T16:21:26.151Z,92.04
2022-12-19T16:22:23.103Z,92.25
2022-12-19T16:23:22.107Z,91.94
2022-12-19T16:24:22.092Z,92.04
2022-12-19T16:25:22.098Z,92.31
2022-12-19T16:26:22.054Z,92.46
2022-12-19T16:27:22.061Z,92.35
2022-12-19T16:28:22.043Z,92.14
2022-12-19T16:29:22.044Z,92.46
2022-12-19T16:30:22.045Z,92.46
2022-12-19T16:31:22.098Z,91.83
2022-12-19T16:32:21.986Z,92.14
2022-12-19T16:33:21.992Z,92.21
2022-12-19T16:34:21.993Z,92.04
2022-12-19T16:35:34.509Z,91.79
2022-12-19T16:36:22.944Z,92.14
2022-12-19T16:37:25.715Z,92.46
2022-12-19T16:38:22.935Z,92.25
2022-12-19T16:39:21.937Z,92.04
2022-12-19T16:40:21.914Z,92.21
2022-12-19T16:41:21.905Z,91.48
2022-12-19T16:42:21.890Z,91.48
2022-12-19T16:43:21.878Z,92.00
2022-12-19T16:44:21.894Z,92.31
2022-12-19T16:45:21.847Z,92.10
2022-12-19T16:46:22.139Z,91.89
2022-12-19T16:47:24.335Z,91.44
2022-12-19T16:48:21.813Z,91.44
2022-12-19T16:49:23.774Z,91.54
2022-12-19T16:50:21.782Z,91.17
2022-12-19T16:51:21.781Z,91.17
2022-12-19T16:52:21.769Z,91.54
2022-12-19T16:53:21.763Z,91.34
2022-12-19T16:54:21.740Z,91.69
2022-12-19T16:55:21.775Z,91.58
2022-12-19T16:56:21.742Z,91.58
2022-12-19T16:57:21.730Z,91.64
2022-12-19T16:58:21.720Z,91.44
2022-12-19T16:59:21.738Z,91.75
2022-12-19T17:00:21.674Z,90.82
2022-12-19T17:01:21.836Z,91.34
2022-12-19T17:02:21.836Z,90.82
2022-12-19T17:03:21.754Z,91.03
